Flight Track Log - Related Links

Times and Time Zones

All times are in EDT time to prevent confusion due to time zone crossing. See the SEJ23 flight status page for this flight to view local times or setup timezone preferences in your user account.

Time Position Orientation Groundspeed Altitude Reporting Facility
EDT Latitude Longitude Course Direction KTS MPH feet Rate Location/Type
Wed 10:01:00 AM 10.0433 77.8266 308° West  Level Estimated
Wed 10:02:00 AM 10.1129 77.7376 308° West  Level Estimated
Wed 10:03:00 AM 10.1824 77.6486 308° West  Level Estimated
Wed 10:04:00 AM 10.2519 77.5595 308° West  Level Estimated
Wed 10:05:00 AM 10.3214 77.4704 308° West  Level Estimated
Wed 10:06:00 AM 10.3908 77.3812 308° West  Level Estimated
Wed 10:07:00 AM 10.4603 77.2920 308° West  Level Estimated
Wed 10:08:00 AM 10.5297 77.2028 308° West  Level Estimated
Wed 10:08:09 AM 10.4699 77.0474 302° West 445 512 26,300  Level FlightAware ADS-B (VOYK)
Wed 10:09:04 AM 10.5310 76.9477 302° West 454 522 27,400 1,098 Climbing FlightAware ADS-B (VOYK)
Wed 10:09:31 AM 10.5316 76.9466 302° West 458 527 27,800 1,031 Climbing FlightAware ADS-B (VOYK)
Wed 10:10:08 AM 10.6011 76.8330 302° West 460 529 28,500 1,059 Climbing FlightAware ADS-B (VOYK)
Wed 10:10:39 AM 10.6351 76.7770 302° West 470 541 29,000 1,065 Climbing FlightAware ADS-B (VOYK)
Wed 10:11:10 AM 10.6731 76.7148 302° West 470 541 29,600 1,292 Climbing FlightAware ADS-B (VOYK)
Wed 10:11:44 AM 10.7123 76.6505 302° West 468 539 30,400 1,406 Climbing FlightAware ADS-B (VOYK)
Wed 10:12:14 AM 10.7467 76.5942 302° West 462 532 31,100 1,400 Climbing FlightAware ADS-B (VOYK)
Wed 10:12:44 AM 10.7804 76.5387 302° West 459 528 31,800 1,300 Climbing FlightAware ADS-B (VOYK)
Wed 10:13:14 AM 10.8141 76.4830 302° West 461 531 32,400 1,279 Climbing FlightAware ADS-B (VOYK)
Wed 10:13:45 AM 10.8475 76.4276 302° West 456 525 33,100 1,440 Climbing FlightAware ADS-B (VOYK)
Wed 10:14:04 AM 10.8737 76.3948 316° Northwest 461 531 33,600 1,320 Climbing FlightAware ADS-B (VOYK)
Wed 10:14:35 AM 10.9211 76.3496 317° Northwest 457 526 34,200 1,000 Climbing FlightAware ADS-B (VOYK)
Wed 10:15:04 AM 10.9672 76.3059 317° Northwest 459 528 34,600 700 Climbing FlightAware ADS-B (VOYK)
Wed 10:15:35 AM 11.0145 76.2613 318° Northwest 464 534 34,900 885 Climbing FlightAware ADS-B (VOYK)
Wed 10:16:05 AM 11.0619 76.2168 317° Northwest 462 532 35,500 1,220 Climbing FlightAware ADS-B (VOYK)
Wed 10:16:34 AM 11.1088 76.1731 318° Northwest 458 527 36,100 1,091 Climbing FlightAware ADS-B (VOYK)
Wed 10:17:00 AM 11.1489 76.1363 318° Northwest 456 525 36,500 923 Climbing FlightAware ADS-B (VOYK)
Wed 10:19:00 AM 11.2881 75.9577 308° West  Level Estimated
Wed 10:20:00 AM 11.3577 75.8684 308° West  Level Estimated
Wed 10:21:00 AM 11.4272 75.7790 308° West  Level Estimated
Wed 10:22:00 AM 11.4967 75.6895 308° West  Level Estimated
Wed 10:23:00 AM 11.5662 75.6000 308° West  Level Estimated
Wed 10:24:00 AM 11.6357 75.5105 308° West  Level Estimated
Wed 10:25:00 AM 11.7051 75.4209 308° West  Level Estimated
Wed 10:26:00 AM 11.7745 75.3313 308° West  Level Estimated
Wed 10:27:00 AM 11.8439 75.2416 308° West  Level Estimated
Wed 10:28:00 AM 11.9133 75.1519 308° West  Level Estimated
Wed 10:29:00 AM 11.9826 75.0622 308° West  Level Estimated
Wed 10:30:00 AM 12.0519 74.9724 308° West  Level Estimated
Wed 10:31:00 AM 12.1212 74.8825 308° West  Level Estimated
Wed 10:32:00 AM 12.1904 74.7926 308° West  Level Estimated
Wed 10:33:00 AM 12.2596 74.7027 308° West  Level Estimated
Wed 10:34:00 AM 12.3288 74.6127 308° West  Level Estimated
Wed 10:35:00 AM 12.3979 74.5226 308° West  Level Estimated
Wed 10:36:00 AM 12.4670 74.4325 308° West  Level Estimated
Wed 10:37:00 AM 12.5361 74.3424 308° West  Level Estimated
Wed 10:38:00 AM 12.6052 74.2522 308° West  Level Estimated
Wed 10:39:00 AM 12.6742 74.1620 308° West  Level Estimated
Wed 10:40:00 AM 12.7432 74.0717 308° West  Level Estimated
Wed 10:41:00 AM 12.8122 73.9814 308° West  Level Estimated
Wed 10:42:00 AM 12.8811 73.8910 308° West  Level Estimated
Wed 10:43:00 AM 12.9500 73.8006 308° West  Level Estimated
Wed 10:44:00 AM 13.0189 73.7101 308° West  Level Estimated
Wed 10:45:00 AM 13.0877 73.6196 308° West  Level Estimated
Wed 10:46:00 AM 13.1566 73.5290 308° West  Level Estimated
Wed 10:47:00 AM 13.2253 73.4383 308° West  Level Estimated
Wed 10:48:00 AM 13.2941 73.3477 308° West  Level Estimated
Wed 10:49:00 AM 13.3628 73.2569 308° West  Level Estimated
Wed 10:50:00 AM 13.4315 73.1662 308° West  Level Estimated
Wed 10:51:00 AM 13.5001 73.0753 308° West  Level Estimated
Wed 10:52:00 AM 13.5687 72.9844 308° West  Level Estimated
Wed 10:53:00 AM 13.6373 72.8935 308° West  Level Estimated
Wed 10:54:00 AM 13.7059 72.8025 308° West  Level Estimated
Wed 10:55:00 AM 13.7744 72.7114 308° West  Level Estimated
Wed 10:56:00 AM 13.8429 72.6203 308° West  Level Estimated
Wed 10:57:00 AM 13.9113 72.5292 308° West  Level Estimated
Wed 10:58:00 AM 13.9797 72.4380 308° West  Level Estimated
Wed 10:59:00 AM 14.0481 72.3467 308° West  Level Estimated
Wed 11:00:00 AM 14.1165 72.2554 308° West  Level Estimated
Wed 11:01:00 AM 14.1848 72.1640 308° West  Level Estimated
Wed 11:02:00 AM 14.2531 72.0726 308° West  Level Estimated
Wed 11:03:00 AM 14.3213 71.9811 308° West  Level Estimated
Wed 11:04:00 AM 14.3895 71.8896 308° West  Level Estimated
Wed 11:05:00 AM 14.4577 71.7980 308° West  Level Estimated
Wed 11:06:00 AM 14.5259 71.7063 308° West  Level Estimated
Wed 11:07:00 AM 14.5940 71.6146 308° West  Level Estimated
Wed 11:08:00 AM 14.6620 71.5228 307° West  Level Estimated
Wed 11:09:00 AM 14.7301 71.4310 307° West  Level Estimated
Wed 11:10:00 AM 14.7980 71.3391 307° West  Level Estimated
Wed 11:11:00 AM 14.8660 71.2472 307° West  Level Estimated
Wed 11:12:00 AM 14.9339 71.1552 307° West  Level Estimated
Wed 11:13:00 AM 15.0018 71.0631 307° West  Level Estimated
Wed 11:14:00 AM 15.0697 70.9710 307° West  Level Estimated
Wed 11:15:00 AM 15.1375 70.8789 307° West  Level Estimated
Wed 11:16:00 AM 15.2052 70.7866 307° West  Level Estimated
Wed 11:17:00 AM 15.2730 70.6944 307° West  Level Estimated
Wed 11:18:00 AM 15.3407 70.6020 307° West  Level Estimated
Wed 11:19:00 AM 15.4083 70.5096 307° West  Level Estimated
Wed 11:20:00 AM 15.4760 70.4171 307° West  Level Estimated
Wed 11:21:00 AM 15.5436 70.3246 307° West  Level Estimated
Wed 11:22:00 AM 15.6111 70.2320 307° West  Level Estimated
Wed 11:23:00 AM 15.6786 70.1394 307° West  Level Estimated
Wed 11:24:00 AM 15.7461 70.0467 307° West  Level Estimated
Wed 11:25:00 AM 15.8135 69.9539 307° West  Level Estimated
Wed 11:26:00 AM 15.8809 69.8611 307° West  Level Estimated
Wed 11:27:00 AM 15.9482 69.7682 307° West  Level Estimated
Wed 11:28:00 AM 16.0156 69.6752 307° West  Level Estimated
Wed 11:29:00 AM 16.0828 69.5822 307° West  Level Estimated
Wed 11:30:00 AM 16.1501 69.4891 307° West  Level Estimated
Wed 11:31:00 AM 16.2173 69.3959 307° West  Level Estimated
Wed 11:32:00 AM 16.2844 69.3027 307° West  Level Estimated
Wed 11:33:00 AM 16.3515 69.2094 307° West  Level Estimated
Wed 11:34:00 AM 16.4186 69.1161 307° West  Level Estimated
Wed 11:35:00 AM 16.4856 69.0227 307° West  Level Estimated
Wed 11:36:00 AM 16.5526 68.9292 307° West  Level Estimated
Wed 11:37:00 AM 16.6195 68.8357 307° West  Level Estimated
Wed 11:38:00 AM 16.6864 68.7421 307° West  Level Estimated
Wed 11:39:00 AM 16.7533 68.6484 307° West  Level Estimated
Wed 11:40:00 AM 16.8201 68.5547 307° West  Level Estimated
Wed 11:41:00 AM 16.8869 68.4609 307° West  Level Estimated
Wed 11:42:00 AM 16.9536 68.3671 307° West  Level Estimated
Wed 11:43:00 AM 17.0203 68.2731 307° West  Level Estimated
Wed 11:44:00 AM 17.0869 68.1791 307° West  Level Estimated
Wed 11:45:00 AM 17.1535 68.0851 307° West  Level Estimated
Wed 11:46:00 AM 17.2201 67.9909 307° West  Level Estimated
Wed 11:47:00 AM 17.2866 67.8967 306° West  Level Estimated
Wed 11:48:00 AM 17.3531 67.8025 306° West  Level Estimated
Wed 11:49:00 AM 17.4195 67.7081 306° West  Level Estimated
Wed 11:50:00 AM 17.4859 67.6137 306° West  Level Estimated
Wed 11:51:00 AM 17.5522 67.5192 306° West  Level Estimated
Wed 11:52:00 AM 17.6185 67.4247 306° West  Level Estimated
Wed 11:53:00 AM 17.6848 67.3301 306° West  Level Estimated
Wed 11:54:00 AM 17.7510 67.2354 306° West  Level Estimated
Wed 11:55:00 AM 17.8171 67.1407 306° West  Level Estimated
Wed 11:56:00 AM 17.8832 67.0459 306° West  Level Estimated
Wed 11:57:00 AM 17.9493 66.9510 306° West  Level Estimated
Wed 11:58:00 AM 18.0153 66.8560 306° West  Level Estimated
Wed 11:59:00 AM 18.0813 66.7610 306° West  Level Estimated
Wed 12:00:00 PM 18.1472 66.6658 306° West  Level Estimated
Wed 12:01:00 PM 18.2131 66.5707 306° West  Level Estimated
Wed 12:02:00 PM 18.2789 66.4754 306° West  Level Estimated
Wed 12:03:00 PM 18.3447 66.3801 306° West  Level Estimated
Wed 12:04:00 PM 18.4104 66.2847 306° West  Level Estimated
Wed 12:05:00 PM 18.4761 66.1892 306° West  Level Estimated
Wed 12:06:00 PM 18.5418 66.0937 306° West  Level Estimated
Wed 12:07:00 PM 18.6074 65.9981 306° West  Level Estimated
Wed 12:08:00 PM 18.6729 65.9024 306° West  Level Estimated
Wed 12:09:00 PM 18.7384 65.8066 306° West  Level Estimated
Wed 12:10:00 PM 18.8039 65.7108 306° West  Level Estimated
Wed 12:11:00 PM 18.8693 65.6149 306° West  Level Estimated
Wed 12:12:00 PM 18.9346 65.5189 306° West  Level Estimated
Wed 12:13:00 PM 18.9999 65.4229 306° West  Level Estimated
Wed 12:14:00 PM 19.0652 65.3267 306° West  Level Estimated
Wed 12:15:00 PM 19.1304 65.2305 306° West  Level Estimated
Wed 12:16:00 PM 19.1955 65.1342 306° West  Level Estimated
Wed 12:17:00 PM 19.2606 65.0378 306° West  Level Estimated
Wed 12:18:00 PM 19.3257 64.9414 306° West  Level Estimated
Wed 12:19:00 PM 19.3907 64.8449 306° West  Level Estimated
Wed 12:20:00 PM 19.4556 64.7483 306° West  Level Estimated
Wed 12:21:00 PM 19.5205 64.6516 305° West  Level Estimated
Wed 12:22:00 PM 19.5854 64.5549 305° West  Level Estimated
Wed 12:23:00 PM 19.6502 64.4581 305° West  Level Estimated
Wed 12:24:00 PM 19.7149 64.3612 305° West  Level Estimated
Wed 12:25:00 PM 19.7796 64.2642 305° West  Level Estimated
Wed 12:26:00 PM 19.8442 64.1671 305° West  Level Estimated
Wed 12:27:00 PM 19.9088 64.0700 305° West  Level Estimated
Wed 12:28:00 PM 19.9734 63.9727 305° West  Level Estimated
Wed 12:29:00 PM 20.0378 63.8754 305° West  Level Estimated
Wed 12:30:00 PM 20.1023 63.7781 305° West  Level Estimated
Wed 12:31:00 PM 20.1666 63.6806 305° West  Level Estimated
Wed 12:32:00 PM 20.2310 63.5831 305° West  Level Estimated
Wed 12:33:00 PM 20.2952 63.4854 305° West  Level Estimated
Wed 12:34:00 PM 20.3594 63.3877 305° West  Level Estimated
Wed 12:35:00 PM 20.4236 63.2900 305° West  Level Estimated
Wed 12:36:00 PM 20.4877 63.1921 305° West  Level Estimated
Wed 12:37:00 PM 20.5518 63.0941 305° West  Level Estimated
Wed 12:38:00 PM 20.6157 62.9961 305° West  Level Estimated
Wed 12:39:00 PM 20.6797 62.8980 305° West  Level Estimated
Wed 12:40:00 PM 20.7436 62.7998 305° West  Level Estimated
Wed 12:41:00 PM 20.8074 62.7015 305° West  Level Estimated
Wed 12:42:00 PM 20.8712 62.6032 305° West  Level Estimated
Wed 12:43:00 PM 20.9349 62.5047 305° West  Level Estimated
Wed 12:44:00 PM 20.9985 62.4062 305° West  Level Estimated
Wed 12:45:00 PM 21.0621 62.3076 305° West  Level Estimated
Wed 12:46:00 PM 21.1257 62.2089 305° West  Level Estimated
Wed 12:47:00 PM 21.1892 62.1101 305° West  Level Estimated
Wed 12:48:00 PM 21.2526 62.0112 305° West  Level Estimated
Wed 12:49:00 PM 21.3160 61.9123 305° West  Level Estimated
Wed 12:50:00 PM 21.3793 61.8133 304° West  Level Estimated
Wed 12:51:00 PM 21.4425 61.7141 304° West  Level Estimated
Wed 12:52:00 PM 21.5057 61.6149 304° West  Level Estimated
Wed 12:53:00 PM 21.5689 61.5156 304° West  Level Estimated
Wed 12:54:00 PM 21.6319 61.4163 304° West  Level Estimated
Wed 12:55:00 PM 21.6950 61.3168 304° West  Level Estimated
Wed 12:56:00 PM 21.7579 61.2172 304° West  Level Estimated
Wed 12:57:00 PM 21.8208 61.1176 304° West  Level Estimated
Wed 12:58:00 PM 21.8837 61.0179 304° West  Level Estimated
Wed 12:59:00 PM 21.9464 60.9180 304° West  Level Estimated
Wed 01:00:00 PM 22.0092 60.8181 304° West  Level Estimated
Wed 01:01:00 PM 22.0718 60.7182 304° West  Level Estimated
Wed 01:02:00 PM 22.1344 60.6181 304° West  Level Estimated
Wed 01:03:00 PM 22.1970 60.5179 304° West  Level Estimated
Wed 01:04:00 PM 22.2595 60.4176 304° West  Level Estimated
Wed 01:05:00 PM 22.3219 60.3173 304° West  Level Estimated
Wed 01:06:00 PM 22.3842 60.2169 304° West  Level Estimated
Wed 01:07:00 PM 22.4465 60.1163 304° West  Level Estimated
Wed 01:08:00 PM 22.5087 60.0157 304° West  Level Estimated
Wed 01:09:00 PM 22.5709 59.9150 304° West  Level Estimated
Wed 01:10:00 PM 22.6330 59.8142 304° West  Level Estimated
Wed 01:11:00 PM 22.6950 59.7133 304° West  Level Estimated
Wed 01:12:00 PM 22.7570 59.6123 304° West  Level Estimated
Wed 01:13:00 PM 22.8189 59.5112 304° West  Level Estimated
Wed 01:14:00 PM 22.8808 59.4101 304° West  Level Estimated
Wed 01:15:00 PM 22.9426 59.3088 304° West  Level Estimated
Wed 01:16:00 PM 23.0043 59.2075 304° West  Level Estimated
Wed 01:17:00 PM 23.0660 59.1060 303° West  Level Estimated
Wed 01:18:00 PM 23.1276 59.0045 303° West  Level Estimated
Wed 01:19:00 PM 23.1891 58.9029 303° West  Level Estimated
Wed 01:20:00 PM 23.2505 58.8011 303° West  Level Estimated
Wed 01:21:00 PM 23.3119 58.6993 303° West  Level Estimated
Wed 01:22:00 PM 23.3733 58.5974 303° West  Level Estimated
Wed 01:23:00 PM 23.4345 58.4954 303° West  Level Estimated
Wed 01:24:00 PM 23.4957 58.3933 303° West  Level Estimated
Wed 01:25:00 PM 23.5569 58.2911 303° West  Level Estimated
Wed 01:26:00 PM 23.6179 58.1888 303° West  Level Estimated
Wed 01:27:00 PM 23.6789 58.0864 303° West  Level Estimated
Wed 01:28:00 PM 23.7399 57.9839 303° West  Level Estimated
Wed 01:29:00 PM 23.8007 57.8814 303° West  Level Estimated
Wed 01:30:00 PM 23.8615 57.7787 303° West  Level Estimated
Wed 01:31:00 PM 23.9223 57.6759 303° West  Level Estimated
Wed 01:32:00 PM 23.9829 57.5730 303° West  Level Estimated
Wed 01:33:00 PM 24.0435 57.4701 303° West  Level Estimated
Wed 01:34:00 PM 24.1040 57.3670 303° West  Level Estimated
Wed 01:35:00 PM 24.1645 57.2639 303° West  Level Estimated
Wed 01:36:00 PM 24.2248 57.1606 303° West  Level Estimated
Wed 01:37:00 PM 24.2852 57.0573 303° West  Level Estimated
Wed 01:38:00 PM 24.3454 56.9538 303° West  Level Estimated
Wed 01:39:00 PM 24.4056 56.8503 303° West  Level Estimated
Wed 01:40:00 PM 24.4657 56.7466 303° West  Level Estimated
Wed 01:41:00 PM 24.5257 56.6428 302° West  Level Estimated
Wed 01:42:00 PM 24.5857 56.5390 302° West  Level Estimated
Wed 01:43:00 PM 24.6456 56.4351 302° West  Level Estimated
Wed 01:44:00 PM 24.7054 56.3310 302° West  Level Estimated
Wed 01:45:00 PM 24.7651 56.2269 302° West  Level Estimated
Wed 01:46:00 PM 24.8248 56.1226 302° West  Level Estimated
Wed 01:47:00 PM 24.8844 56.0183 302° West  Level Estimated
Wed 01:48:00 PM 24.9439 55.9138 302° West  Level Estimated
Wed 01:49:00 PM 25.0034 55.8093 302° West  Level Estimated
Wed 01:50:00 PM 25.0628 55.7046 302° West  Level Estimated
Wed 01:51:00 PM 25.1221 55.5999 302° West  Level Estimated
Wed 01:52:00 PM 25.1813 55.4950 302° West  Level Estimated
Wed 01:53:00 PM 25.2405 55.3901 302° West  Level Estimated
Wed 01:54:00 PM 25.2550 55.3643 302° West  Level Estimated
Wed 01:55:00 PM 25.2550 55.3643 North  Level Estimated
Wed 01:56:00 PM 25.2550 55.3643 North  Level Estimated
Wed 01:57:00 PM 25.2550 55.3643 North  Level Estimated
Wed 01:58:00 PM 25.2550 55.3643 North  Level Estimated
Wed 01:59:00 PM 25.2550 55.3643 North  Level Estimated
Wed 02:00:00 PM 25.2550 55.3643 North  Level Estimated
Wed 02:01:00 PM 25.2550 55.3643 North  Level Estimated
Wed 02:02:00 PM 25.2550 55.3643 North  Level Estimated
Wed 02:03:00 PM 25.2550 55.3643 North  Level Estimated
Wed 02:04:00 PM 25.2550 55.3643 North  Level Estimated
Wed 02:05:00 PM 25.2550 55.3643 North  Level Estimated
Wed 02:06:00 PM 25.2550 55.3643 North  Level Estimated
Wed 02:07:00 PM 25.2550 55.3643 North  Level Estimated
Wed 02:08:00 PM 25.2550 55.3643 North  Level Estimated
Wed 02:09:00 PM 25.2550 55.3643 North  Level Estimated
Wed 02:10:00 PM 25.2550 55.3643 North  Level Estimated
Wed 02:11:00 PM 25.2550 55.3643 North  Level Estimated

Login

Don't have an account? Register now (free) for customized features, flight alerts, and more!